createdAt,value
2017-05-18T00:00:15.892Z,55.19
2017-05-18T00:01:14.214Z,55.30
2017-05-18T00:02:14.167Z,55.86
2017-05-18T00:03:14.307Z,55.52
2017-05-18T00:04:14.202Z,55.63
2017-05-18T00:05:14.386Z,55.43
2017-05-18T00:06:14.310Z,55.44
2017-05-18T00:07:14.401Z,55.42
2017-05-18T00:08:14.236Z,55.41
2017-05-18T00:09:15.814Z,55.47
2017-05-18T00:10:15.112Z,55.36
2017-05-18T00:11:14.366Z,55.40
2017-05-18T00:12:14.527Z,55.42
2017-05-18T00:13:12.183Z,55.37
2017-05-18T00:14:14.865Z,55.28
2017-05-18T00:15:12.541Z,55.33
2017-05-18T00:16:14.203Z,55.35
2017-05-18T00:17:14.468Z,55.25
2017-05-18T00:18:11.811Z,55.29
2017-05-18T00:19:14.722Z,54.52
2017-05-18T00:20:14.807Z,54.20
2017-05-18T00:21:14.946Z,54.08
2017-05-18T00:22:13.847Z,53.93
2017-05-18T00:23:15.825Z,53.98
2017-05-18T00:24:15.999Z,53.92
2017-05-18T00:25:14.228Z,53.91
2017-05-18T00:26:15.122Z,53.87
2017-05-18T00:27:14.711Z,53.85
2017-05-18T00:28:15.118Z,54.69
2017-05-18T00:29:15.706Z,54.83
2017-05-18T00:30:14.759Z,54.94
2017-05-18T00:31:14.758Z,54.96
2017-05-18T00:32:14.942Z,54.98
2017-05-18T00:33:11.710Z,55.00
2017-05-18T00:34:10.868Z,55.00
2017-05-18T00:35:14.583Z,54.99
2017-05-18T00:36:14.714Z,54.98
2017-05-18T00:37:14.717Z,54.96
2017-05-18T00:38:16.354Z,54.93
2017-05-18T00:39:14.322Z,54.94
2017-05-18T00:40:15.169Z,54.92
2017-05-18T00:41:14.974Z,54.92
2017-05-18T00:42:15.118Z,54.91
2017-05-18T00:43:15.054Z,54.90
2017-05-18T00:44:14.020Z,54.86
2017-05-18T00:45:14.298Z,54.84
2017-05-18T00:46:14.256Z,54.80
2017-05-18T00:47:14.802Z,54.80
2017-05-18T00:48:15.286Z,54.78
2017-05-18T00:49:14.313Z,54.74
2017-05-18T00:50:14.693Z,54.77
2017-05-18T00:51:14.971Z,54.74
2017-05-18T00:52:14.002Z,54.72
2017-05-18T00:53:14.240Z,54.68
2017-05-18T00:54:14.790Z,54.69
2017-05-18T00:55:14.692Z,54.68
2017-05-18T00:56:14.737Z,54.70
2017-05-18T00:57:10.582Z,54.65
2017-05-18T00:58:11.799Z,54.63
2017-05-18T00:59:14.519Z,53.74
2017-05-18T01:00:14.615Z,53.86
2017-05-18T01:01:15.053Z,54.32
2017-05-18T01:02:11.772Z,54.40
2017-05-18T01:03:14.761Z,53.77
2017-05-18T01:04:14.850Z,54.35
2017-05-18T01:05:15.808Z,54.46
2017-05-18T01:06:13.028Z,54.49
2017-05-18T01:07:14.101Z,53.63
2017-05-18T01:08:14.229Z,53.49
2017-05-18T01:09:14.135Z,54.19
2017-05-18T01:10:14.761Z,54.32
2017-05-18T01:11:15.440Z,54.38
2017-05-18T01:12:14.860Z,54.39
2017-05-18T01:13:15.860Z,54.41
2017-05-18T01:14:15.740Z,54.39
2017-05-18T01:15:15.005Z,54.40
2017-05-18T01:16:14.011Z,54.38
2017-05-18T01:17:13.977Z,54.36
2017-05-18T01:18:13.998Z,54.33
2017-05-18T01:19:13.916Z,54.35
2017-05-18T01:20:13.767Z,54.33
2017-05-18T01:21:14.726Z,54.35
2017-05-18T01:22:12.465Z,54.28
2017-05-18T01:23:13.924Z,54.27
2017-05-18T01:24:11.412Z,54.25
2017-05-18T01:25:14.357Z,54.29
2017-05-18T01:26:14.909Z,54.25
2017-05-18T01:27:14.420Z,54.20
2017-05-18T01:28:14.721Z,54.21
2017-05-18T01:29:14.975Z,54.21
2017-05-18T01:30:14.476Z,54.21
2017-05-18T01:31:11.549Z,54.22
2017-05-18T01:32:15.111Z,54.19
2017-05-18T01:33:14.071Z,54.15
2017-05-18T01:34:14.084Z,54.13
2017-05-18T01:35:15.166Z,53.92
2017-05-18T01:36:14.564Z,53.30
2017-05-18T01:37:15.813Z,53.14
2017-05-18T01:38:15.158Z,53.32
2017-05-18T01:39:15.838Z,53.84
2017-05-18T01:40:15.103Z,53.92
2017-05-18T01:41:14.662Z,54.00
2017-05-18T01:42:14.900Z,54.00
2017-05-18T01:43:13.997Z,54.00
2017-05-18T01:44:13.723Z,54.06
2017-05-18T01:45:15.041Z,54.08
2017-05-18T01:46:14.264Z,53.89
2017-05-18T01:47:14.520Z,53.26
2017-05-18T01:48:14.410Z,53.97
2017-05-18T01:49:15.511Z,54.06
2017-05-18T01:50:14.327Z,54.07
2017-05-18T01:51:14.818Z,54.09
2017-05-18T01:52:15.506Z,54.05
2017-05-18T01:53:14.655Z,54.07
2017-05-18T01:54:14.985Z,54.01
2017-05-18T01:55:14.168Z,54.04
2017-05-18T01:56:14.056Z,54.03
2017-05-18T01:57:10.313Z,54.01
2017-05-18T01:58:14.921Z,54.00
2017-05-18T01:59:11.482Z,54.00
2017-05-18T02:00:13.917Z,53.99
2017-05-18T02:01:10.265Z,53.98
2017-05-18T02:02:14.745Z,54.00
2017-05-18T02:03:14.900Z,54.00
2017-05-18T02:04:14.011Z,53.97
2017-05-18T02:05:14.106Z,53.98
2017-05-18T02:06:14.763Z,53.98
2017-05-18T02:07:15.045Z,53.95
2017-05-18T02:08:10.817Z,53.95
2017-05-18T02:09:14.740Z,53.91
2017-05-18T02:10:14.552Z,53.91
2017-05-18T02:11:15.053Z,53.92
2017-05-18T02:12:14.206Z,53.91
2017-05-18T02:13:14.389Z,53.86
2017-05-18T02:14:14.605Z,53.88
2017-05-18T02:15:14.772Z,53.85
2017-05-18T02:16:14.682Z,53.86
2017-05-18T02:17:15.544Z,53.83
2017-05-18T02:18:15.051Z,53.84
2017-05-18T02:19:14.778Z,53.86
2017-05-18T02:20:14.925Z,53.83
2017-05-18T02:21:16.714Z,53.79
2017-05-18T02:22:14.478Z,53.80
2017-05-18T02:23:14.795Z,53.59
2017-05-18T02:24:14.736Z,52.94
2017-05-18T02:25:11.613Z,52.73
2017-05-18T02:26:15.153Z,52.96
2017-05-18T02:27:15.134Z,53.50
2017-05-18T02:28:14.355Z,53.63
2017-05-18T02:29:14.203Z,53.66
2017-05-18T02:30:14.435Z,53.65
2017-05-18T02:31:11.531Z,53.69
2017-05-18T02:32:14.559Z,53.69
2017-05-18T02:33:14.880Z,53.66
2017-05-18T02:34:16.213Z,53.68
2017-05-18T02:35:14.819Z,53.64
2017-05-18T02:36:12.750Z,53.68
2017-05-18T02:37:14.496Z,53.65
2017-05-18T02:38:15.712Z,53.68
2017-05-18T02:39:15.348Z,53.66
2017-05-18T02:40:14.875Z,53.64
2017-05-18T02:41:15.442Z,53.62
2017-05-18T02:42:14.780Z,53.62
2017-05-18T02:43:15.022Z,53.61
2017-05-18T02:44:14.288Z,53.59
2017-05-18T02:45:14.222Z,53.51
2017-05-18T02:46:15.049Z,53.48
2017-05-18T02:47:15.016Z,53.48
2017-05-18T02:48:14.691Z,53.54
2017-05-18T02:49:15.245Z,53.59
2017-05-18T02:50:14.847Z,53.64
2017-05-18T02:51:15.336Z,53.65
2017-05-18T02:52:10.731Z,53.61
2017-05-18T02:53:14.278Z,53.55
2017-05-18T02:54:14.943Z,53.52
2017-05-18T02:55:13.738Z,53.50
2017-05-18T02:56:14.955Z,53.41
2017-05-18T02:57:13.804Z,53.53
2017-05-18T02:58:15.106Z,53.55
2017-05-18T02:59:14.770Z,53.59
2017-05-18T03:00:16.136Z,53.59
2017-05-18T03:01:14.110Z,53.55
2017-05-18T03:02:14.794Z,53.33
2017-05-18T03:03:16.304Z,52.94
2017-05-18T03:04:14.467Z,53.32
2017-05-18T03:05:14.920Z,53.23
2017-05-18T03:06:14.533Z,52.55
2017-05-18T03:07:14.559Z,52.73
2017-05-18T03:08:14.616Z,53.21
2017-05-18T03:09:14.479Z,53.33
2017-05-18T03:10:14.955Z,53.42
2017-05-18T03:11:11.903Z,53.45
2017-05-18T03:12:14.356Z,53.43
2017-05-18T03:13:14.303Z,53.40
2017-05-18T03:14:14.379Z,53.41
2017-05-18T03:15:14.581Z,53.17
2017-05-18T03:16:14.631Z,52.50
2017-05-18T03:17:14.501Z,52.39
2017-05-18T03:18:14.620Z,52.21
2017-05-18T03:19:15.193Z,52.13
2017-05-18T03:20:14.211Z,52.42
2017-05-18T03:21:14.501Z,52.90
2017-05-18T03:22:15.050Z,53.04
2017-05-18T03:23:13.576Z,53.11
2017-05-18T03:24:14.745Z,53.12
2017-05-18T03:25:15.443Z,53.14
2017-05-18T03:26:15.404Z,53.02
2017-05-18T03:27:11.175Z,53.06
2017-05-18T03:28:14.403Z,52.22
2017-05-18T03:29:14.245Z,52.09
2017-05-18T03:30:14.814Z,51.99
2017-05-18T03:31:15.817Z,51.92
2017-05-18T03:32:15.317Z,51.88
2017-05-18T03:33:17.088Z,51.86
2017-05-18T03:34:14.696Z,52.61
2017-05-18T03:35:16.317Z,52.76
2017-05-18T03:36:14.413Z,52.90
2017-05-18T03:37:14.309Z,52.85
2017-05-18T03:38:14.566Z,52.87
2017-05-18T03:39:14.832Z,52.89
2017-05-18T03:40:14.848Z,52.90
2017-05-18T03:41:11.300Z,52.95
2017-05-18T03:42:14.699Z,52.95
2017-05-18T03:43:14.819Z,52.92
2017-05-18T03:44:14.552Z,52.83
2017-05-18T03:45:11.654Z,52.84
2017-05-18T03:46:14.528Z,52.87
2017-05-18T03:47:14.713Z,52.88
2017-05-18T03:48:14.672Z,52.82
2017-05-18T03:49:14.725Z,52.82
2017-05-18T03:50:14.783Z,52.65
2017-05-18T03:51:19.227Z,52.84
2017-05-18T03:52:14.229Z,52.89
2017-05-18T03:53:14.744Z,52.87
2017-05-18T03:54:14.652Z,52.85
2017-05-18T03:55:14.617Z,52.83
2017-05-18T03:56:15.105Z,52.81
2017-05-18T03:57:14.313Z,52.86
2017-05-18T03:58:15.134Z,52.84
2017-05-18T03:59:15.673Z,52.77
2017-05-18T04:00:14.587Z,52.80
2017-05-18T04:01:14.697Z,52.80
2017-05-18T04:02:14.643Z,52.77
2017-05-18T04:03:15.057Z,52.78
2017-05-18T04:04:14.877Z,52.74
2017-05-18T04:05:15.150Z,52.75
2017-05-18T04:06:14.189Z,52.72
2017-05-18T04:07:14.104Z,52.70
2017-05-18T04:08:14.061Z,52.70
2017-05-18T04:09:15.057Z,52.67
2017-05-18T04:10:14.435Z,52.68
2017-05-18T04:11:14.470Z,52.64
2017-05-18T04:12:14.933Z,52.65
2017-05-18T04:13:14.071Z,52.67
2017-05-18T04:14:14.036Z,52.63
2017-05-18T04:15:14.521Z,52.63
2017-05-18T04:16:10.922Z,52.68
2017-05-18T04:17:14.920Z,52.66
2017-05-18T04:18:13.562Z,52.66
2017-05-18T04:19:14.735Z,52.64
2017-05-18T04:20:14.981Z,52.67
2017-05-18T04:21:13.992Z,52.71
2017-05-18T04:22:13.969Z,52.69
2017-05-18T04:23:14.162Z,52.69
2017-05-18T04:24:14.105Z,52.66
2017-05-18T04:25:15.445Z,52.68
2017-05-18T04:26:14.841Z,52.68
2017-05-18T04:27:15.492Z,52.69
2017-05-18T04:28:14.799Z,52.70
2017-05-18T04:29:14.788Z,52.71
2017-05-18T04:30:16.361Z,52.71
2017-05-18T04:31:14.911Z,52.67
2017-05-18T04:32:15.404Z,52.71
2017-05-18T04:33:14.999Z,52.73
2017-05-18T04:34:14.011Z,52.77
2017-05-18T04:35:15.294Z,52.78
2017-05-18T04:36:14.333Z,52.79
2017-05-18T04:37:14.372Z,52.81
2017-05-18T04:38:14.233Z,52.81
2017-05-18T04:39:14.312Z,52.74
2017-05-18T04:40:11.011Z,52.76
2017-05-18T04:41:15.217Z,52.78
2017-05-18T04:42:14.228Z,52.76
2017-05-18T04:43:11.880Z,52.63
2017-05-18T04:44:11.824Z,51.89
2017-05-18T04:45:10.582Z,51.68
2017-05-18T04:46:14.417Z,51.64
2017-05-18T04:47:14.632Z,51.58
2017-05-18T04:48:14.650Z,51.56
2017-05-18T04:49:14.738Z,51.52
2017-05-18T04:50:15.721Z,51.49
2017-05-18T04:51:11.327Z,51.55
2017-05-18T04:52:14.663Z,52.33
2017-05-18T04:53:14.978Z,52.50
2017-05-18T04:54:14.072Z,52.57
2017-05-18T04:55:14.189Z,52.62
2017-05-18T04:56:14.265Z,52.65
2017-05-18T04:57:14.158Z,52.68
2017-05-18T04:58:14.117Z,52.69
2017-05-18T04:59:14.595Z,52.71
2017-05-18T05:00:14.908Z,52.72
2017-05-18T05:01:13.788Z,52.72
2017-05-18T05:02:14.842Z,52.74
2017-05-18T05:03:15.107Z,52.74
2017-05-18T05:04:14.693Z,52.75
2017-05-18T05:05:14.737Z,52.77
2017-05-18T05:06:14.724Z,52.76
2017-05-18T05:07:14.989Z,52.78
2017-05-18T05:08:14.694Z,52.80
2017-05-18T05:09:14.894Z,52.80
2017-05-18T05:10:13.998Z,52.85
2017-05-18T05:11:14.004Z,52.87
2017-05-18T05:12:14.524Z,52.89
2017-05-18T05:13:14.732Z,52.92
2017-05-18T05:14:15.079Z,52.99
2017-05-18T05:15:14.400Z,52.96
2017-05-18T05:16:15.510Z,52.98
2017-05-18T05:17:15.299Z,53.00
2017-05-18T05:18:14.450Z,53.00
2017-05-18T05:19:14.816Z,53.04
2017-05-18T05:20:15.045Z,53.10
2017-05-18T05:21:13.753Z,53.13
2017-05-18T05:22:16.011Z,53.09
2017-05-18T05:23:13.902Z,53.12
2017-05-18T05:24:10.838Z,53.12
2017-05-18T05:25:14.053Z,53.16
2017-05-18T05:26:14.285Z,53.16
2017-05-18T05:27:14.477Z,53.16
2017-05-18T05:28:14.515Z,53.14
2017-05-18T05:29:15.681Z,53.20
2017-05-18T05:30:15.213Z,53.29
2017-05-18T05:31:15.789Z,53.24
2017-05-18T05:32:15.053Z,53.34
2017-05-18T05:33:14.790Z,53.31
2017-05-18T05:34:15.418Z,53.34
2017-05-18T05:35:14.646Z,53.30
2017-05-18T05:36:15.004Z,53.39
2017-05-18T05:37:14.541Z,53.18
2017-05-18T05:38:14.793Z,52.86
2017-05-18T05:39:15.259Z,53.30
2017-05-18T05:40:14.440Z,53.39
2017-05-18T05:41:14.680Z,53.49
2017-05-18T05:42:12.403Z,53.49
2017-05-18T05:43:14.097Z,53.48
2017-05-18T05:44:10.884Z,53.49
2017-05-18T05:45:14.807Z,52.52
2017-05-18T05:46:15.641Z,52.49
2017-05-18T05:47:15.543Z,52.38
2017-05-18T05:48:14.737Z,52.31
2017-05-18T05:49:15.194Z,52.25
2017-05-18T05:50:09.751Z,52.28
2017-05-18T05:51:15.068Z,52.59
2017-05-18T05:52:13.983Z,53.25
2017-05-18T05:53:10.890Z,53.51
2017-05-18T05:54:14.705Z,53.71
2017-05-18T05:55:17.193Z,53.81
2017-05-18T05:56:14.274Z,53.98
2017-05-18T05:57:14.934Z,53.94
2017-05-18T05:58:14.594Z,54.14
2017-05-18T05:59:14.909Z,54.27
2017-05-18T06:00:13.906Z,54.37
2017-05-18T06:01:14.463Z,54.37
2017-05-18T06:02:14.658Z,54.51
2017-05-18T06:03:15.039Z,54.37
2017-05-18T06:04:14.163Z,54.62
2017-05-18T06:05:14.834Z,54.81
2017-05-18T06:06:14.499Z,55.01
2017-05-18T06:07:14.643Z,55.05
2017-05-18T06:08:14.562Z,55.08
2017-05-18T06:09:14.553Z,55.13
2017-05-18T06:10:12.253Z,55.19
2017-05-18T06:11:15.610Z,55.25
2017-05-18T06:12:15.719Z,55.14
2017-05-18T06:13:14.633Z,55.44
2017-05-18T06:14:14.506Z,55.52
2017-05-18T06:15:15.043Z,55.27
2017-05-18T06:16:14.064Z,54.95
2017-05-18T06:17:14.441Z,54.66
2017-05-18T06:18:14.396Z,54.46
2017-05-18T06:19:14.678Z,54.37
2017-05-18T06:20:14.533Z,54.26
2017-05-18T06:21:14.730Z,54.09
2017-05-18T06:22:12.156Z,53.97
2017-05-18T06:23:14.735Z,53.94
2017-05-18T06:24:14.975Z,53.91
2017-05-18T06:25:14.085Z,54.86
2017-05-18T06:26:14.273Z,54.99
2017-05-18T06:27:14.735Z,55.02
2017-05-18T06:28:15.846Z,55.13
2017-05-18T06:29:15.025Z,55.10
2017-05-18T06:30:13.457Z,55.26
2017-05-18T06:31:14.036Z,55.28
2017-05-18T06:32:11.839Z,55.75
2017-05-18T06:33:14.044Z,54.71
2017-05-18T06:34:14.484Z,54.65
2017-05-18T06:35:15.111Z,55.60
2017-05-18T06:36:14.610Z,55.44
2017-05-18T06:37:14.812Z,55.52
2017-05-18T06:38:15.218Z,55.95
2017-05-18T06:39:14.509Z,56.34
2017-05-18T06:40:14.895Z,56.81
2017-05-18T06:41:14.848Z,56.16
2017-05-18T06:42:15.447Z,56.11
2017-05-18T06:43:14.349Z,56.18
2017-05-18T06:44:15.233Z,55.98
2017-05-18T06:45:14.264Z,55.91
2017-05-18T06:46:11.755Z,56.00
2017-05-18T06:47:14.736Z,55.03
2017-05-18T06:48:14.888Z,55.13
2017-05-18T06:49:13.851Z,55.30
2017-05-18T06:50:15.116Z,55.90
2017-05-18T06:51:14.430Z,56.40
2017-05-18T06:52:14.530Z,56.27
2017-05-18T06:53:14.927Z,56.31
2017-05-18T06:54:14.314Z,56.27
2017-05-18T06:55:14.759Z,56.25
2017-05-18T06:56:10.679Z,56.10
2017-05-18T06:57:14.110Z,56.03
2017-05-18T06:58:14.709Z,55.99
2017-05-18T06:59:14.442Z,55.96
2017-05-18T07:00:15.154Z,55.87
2017-05-18T07:01:14.200Z,55.81
2017-05-18T07:02:14.234Z,55.79
2017-05-18T07:03:14.219Z,55.71
2017-05-18T07:04:14.687Z,55.65
2017-05-18T07:05:14.629Z,55.63
2017-05-18T07:06:14.789Z,55.61
2017-05-18T07:07:14.824Z,55.57
2017-05-18T07:08:15.423Z,55.36
2017-05-18T07:09:14.965Z,54.95
2017-05-18T07:10:13.973Z,55.29
2017-05-18T07:11:14.282Z,55.31
2017-05-18T07:12:14.648Z,55.28
2017-05-18T07:13:14.889Z,55.29
2017-05-18T07:14:12.477Z,55.32
2017-05-18T07:15:13.729Z,55.31
2017-05-18T07:16:15.084Z,55.32
2017-05-18T07:17:14.509Z,55.29
2017-05-18T07:18:14.848Z,55.22
2017-05-18T07:19:14.765Z,55.25
2017-05-18T07:20:14.601Z,55.19
2017-05-18T07:21:14.907Z,55.16
2017-05-18T07:22:14.544Z,55.11
2017-05-18T07:23:14.619Z,55.09
2017-05-18T07:24:15.789Z,55.08
2017-05-18T07:25:15.406Z,55.07
2017-05-18T07:26:14.942Z,55.08
2017-05-18T07:27:15.404Z,55.03
2017-05-18T07:28:14.512Z,55.03
2017-05-18T07:29:16.539Z,55.00
2017-05-18T07:30:14.726Z,54.97
2017-05-18T07:31:15.472Z,54.96
2017-05-18T07:32:14.430Z,54.98
2017-05-18T07:33:15.083Z,54.99
2017-05-18T07:34:14.039Z,54.94
2017-05-18T07:35:16.062Z,55.00
2017-05-18T07:36:15.389Z,54.94
2017-05-18T07:37:14.334Z,54.94
2017-05-18T07:38:14.395Z,54.93
2017-05-18T07:39:14.433Z,54.88
2017-05-18T07:40:14.741Z,54.92
2017-05-18T07:41:15.298Z,54.89
2017-05-18T07:42:14.210Z,54.95
2017-05-18T07:43:11.264Z,54.92
2017-05-18T07:44:11.663Z,54.89
2017-05-18T07:45:15.057Z,54.84
2017-05-18T07:46:14.216Z,54.86
2017-05-18T07:47:14.548Z,54.80
2017-05-18T07:48:14.912Z,54.82
2017-05-18T07:49:14.469Z,54.82
2017-05-18T07:50:14.421Z,54.81
2017-05-18T07:51:11.381Z,54.80
2017-05-18T07:52:14.343Z,53.93
2017-05-18T07:53:12.282Z,53.84
2017-05-18T07:54:15.003Z,53.64
2017-05-18T07:55:14.076Z,53.53
2017-05-18T07:56:14.281Z,53.86
2017-05-18T07:57:14.790Z,54.38
2017-05-18T07:58:15.974Z,54.54
2017-05-18T07:59:14.229Z,54.57
2017-05-18T08:00:14.014Z,54.61
2017-05-18T08:01:14.113Z,54.61
2017-05-18T08:02:14.314Z,54.61
2017-05-18T08:03:11.426Z,54.60
2017-05-18T08:04:14.660Z,54.60
2017-05-18T08:05:15.089Z,54.59
2017-05-18T08:06:14.563Z,54.37
2017-05-18T08:07:14.302Z,53.68
2017-05-18T08:08:14.411Z,53.49
2017-05-18T08:09:14.778Z,53.40
2017-05-18T08:10:15.054Z,53.34
2017-05-18T08:11:14.424Z,53.44
2017-05-18T08:12:14.709Z,53.99
2017-05-18T08:13:15.184Z,53.45
2017-05-18T08:14:14.156Z,54.16
2017-05-18T08:15:14.528Z,54.29
2017-05-18T08:16:14.885Z,54.36
2017-05-18T08:17:14.217Z,54.37
2017-05-18T08:18:14.877Z,54.36
2017-05-18T08:19:14.921Z,54.39
2017-05-18T08:20:11.238Z,54.42
2017-05-18T08:21:11.374Z,54.41
2017-05-18T08:22:14.943Z,54.38
2017-05-18T08:23:14.304Z,54.38
2017-05-18T08:24:11.620Z,54.38
2017-05-18T08:25:14.735Z,54.36
2017-05-18T08:26:12.318Z,54.13
2017-05-18T08:27:14.064Z,53.74
2017-05-18T08:28:13.405Z,54.18
2017-05-18T08:29:14.157Z,54.24
2017-05-18T08:30:15.079Z,54.29
2017-05-18T08:31:15.002Z,54.31
2017-05-18T08:32:15.407Z,54.27
2017-05-18T08:33:14.373Z,54.23
2017-05-18T08:34:14.409Z,54.23
2017-05-18T08:35:14.508Z,54.28
2017-05-18T08:36:15.213Z,54.30
2017-05-18T08:37:14.034Z,54.26
2017-05-18T08:38:14.257Z,54.26
2017-05-18T08:39:14.390Z,54.24
2017-05-18T08:40:14.884Z,54.22
2017-05-18T08:41:14.145Z,54.25
2017-05-18T08:42:14.253Z,54.22
2017-05-18T08:43:14.178Z,54.24
2017-05-18T08:44:14.912Z,54.03
2017-05-18T08:45:14.277Z,53.68
2017-05-18T08:46:11.767Z,54.04
2017-05-18T08:47:14.311Z,54.11
2017-05-18T08:48:11.181Z,54.14
2017-05-18T08:49:17.380Z,54.12
2017-05-18T08:50:15.629Z,54.14
2017-05-18T08:51:14.867Z,54.14
2017-05-18T08:52:18.986Z,54.14
2017-05-18T08:53:13.881Z,54.15
2017-05-18T08:54:15.396Z,54.12
2017-05-18T08:55:14.587Z,54.13
2017-05-18T08:56:14.853Z,54.14
2017-05-18T08:57:12.450Z,54.16
2017-05-18T08:58:20.124Z,54.12
2017-05-18T08:59:14.172Z,54.13
2017-05-18T09:00:14.785Z,54.12
2017-05-18T09:01:14.942Z,54.12
2017-05-18T09:02:14.207Z,54.10
2017-05-18T09:03:14.327Z,54.08
2017-05-18T09:04:14.969Z,54.07
2017-05-18T09:05:13.976Z,54.09
2017-05-18T09:06:14.685Z,54.05
2017-05-18T09:07:14.579Z,54.04
2017-05-18T09:08:14.490Z,54.07
2017-05-18T09:09:14.446Z,54.09
2017-05-18T09:10:14.995Z,54.05
2017-05-18T09:11:14.039Z,54.04
2017-05-18T09:12:14.566Z,54.03
2017-05-18T09:13:14.916Z,53.83
2017-05-18T09:14:14.104Z,53.42
2017-05-18T09:15:13.887Z,53.85
2017-05-18T09:16:14.058Z,53.92
2017-05-18T09:17:14.057Z,53.94
2017-05-18T09:18:14.115Z,53.95
2017-05-18T09:19:14.230Z,53.98
2017-05-18T09:20:14.876Z,53.95
2017-05-18T09:21:15.523Z,53.97
2017-05-18T09:22:15.676Z,54.00
2017-05-18T09:23:14.626Z,53.98
2017-05-18T09:24:14.547Z,53.96
2017-05-18T09:25:15.041Z,53.99
2017-05-18T09:26:15.012Z,54.00
2017-05-18T09:27:15.485Z,53.98
2017-05-18T09:28:14.859Z,53.97
2017-05-18T09:29:16.419Z,53.96
2017-05-18T09:30:15.978Z,53.98
2017-05-18T09:31:14.754Z,53.98
2017-05-18T09:32:15.131Z,53.98
2017-05-18T09:33:11.682Z,53.96
2017-05-18T09:34:14.552Z,53.96
2017-05-18T09:35:11.899Z,53.97
2017-05-18T09:36:14.372Z,53.96
2017-05-18T09:37:14.798Z,53.96
2017-05-18T09:38:14.970Z,53.96
2017-05-18T09:39:14.505Z,53.96
2017-05-18T09:40:14.952Z,53.96
2017-05-18T09:41:13.800Z,53.97
2017-05-18T09:42:15.013Z,53.97
2017-05-18T09:43:14.484Z,53.97
2017-05-18T09:44:14.423Z,53.95
2017-05-18T09:45:15.248Z,53.95
2017-05-18T09:46:14.504Z,53.93
2017-05-18T09:47:11.383Z,53.97
2017-05-18T09:48:13.728Z,53.96
2017-05-18T09:49:15.095Z,53.95
2017-05-18T09:50:14.193Z,53.93
2017-05-18T09:51:14.577Z,53.90
2017-05-18T09:52:14.929Z,53.92
2017-05-18T09:53:14.069Z,53.90
2017-05-18T09:54:14.927Z,53.89
2017-05-18T09:55:11.590Z,53.88
2017-05-18T09:56:13.916Z,53.88
2017-05-18T09:57:14.879Z,53.88
2017-05-18T09:58:14.736Z,53.84
2017-05-18T09:59:14.930Z,53.86
2017-05-18T10:00:14.397Z,53.82
2017-05-18T10:01:12.078Z,53.82
2017-05-18T10:02:14.407Z,53.24
2017-05-18T10:03:15.241Z,53.65
2017-05-18T10:04:14.975Z,53.72
2017-05-18T10:05:14.333Z,53.74
2017-05-18T10:06:14.489Z,53.74
2017-05-18T10:07:14.833Z,53.76
2017-05-18T10:08:14.956Z,53.76
2017-05-18T10:09:14.919Z,53.74
2017-05-18T10:10:14.978Z,53.73
2017-05-18T10:11:14.398Z,53.57
2017-05-18T10:12:14.725Z,52.87
2017-05-18T10:13:15.176Z,52.70
2017-05-18T10:14:14.768Z,52.78
2017-05-18T10:15:15.175Z,53.42
2017-05-18T10:16:14.177Z,53.54
2017-05-18T10:17:14.393Z,53.59
2017-05-18T10:18:14.604Z,53.47
2017-05-18T10:19:14.523Z,52.84
2017-05-18T10:20:14.529Z,53.47
2017-05-18T10:21:15.280Z,53.58
2017-05-18T10:22:14.467Z,53.61
2017-05-18T10:23:14.574Z,53.63
2017-05-18T10:24:15.543Z,53.66
2017-05-18T10:25:14.908Z,53.65
2017-05-18T10:26:15.709Z,53.65
2017-05-18T10:27:15.132Z,53.43
2017-05-18T10:28:14.929Z,53.09
2017-05-18T10:29:14.007Z,53.49
2017-05-18T10:30:15.227Z,53.56
2017-05-18T10:31:14.517Z,53.59
2017-05-18T10:32:15.613Z,53.62
2017-05-18T10:33:14.516Z,53.61
2017-05-18T10:34:14.851Z,53.39
2017-05-18T10:35:14.897Z,52.68
2017-05-18T10:36:10.735Z,52.60
2017-05-18T10:37:14.518Z,52.50
2017-05-18T10:38:14.583Z,52.46
2017-05-18T10:39:12.014Z,52.40
2017-05-18T10:40:14.756Z,52.72
2017-05-18T10:41:14.810Z,53.23
2017-05-18T10:42:15.318Z,53.42
2017-05-18T10:43:14.198Z,53.48
2017-05-18T10:44:14.601Z,53.50
2017-05-18T10:45:12.008Z,53.54
2017-05-18T10:46:15.836Z,53.55
2017-05-18T10:47:14.765Z,53.54
2017-05-18T10:48:14.978Z,53.56
2017-05-18T10:49:14.104Z,53.57
2017-05-18T10:50:14.161Z,53.54
2017-05-18T10:51:14.463Z,53.56
2017-05-18T10:52:15.438Z,53.57
2017-05-18T10:53:14.173Z,53.58
2017-05-18T10:54:17.808Z,53.56
2017-05-18T10:55:15.529Z,53.56
2017-05-18T10:56:14.371Z,53.58
2017-05-18T10:57:14.284Z,53.58
2017-05-18T10:58:11.409Z,53.62
2017-05-18T10:59:16.944Z,53.61
2017-05-18T11:00:15.471Z,53.62
2017-05-18T11:01:14.542Z,53.59
2017-05-18T11:02:11.933Z,53.59
2017-05-18T11:03:14.733Z,52.77
2017-05-18T11:04:14.938Z,52.58
2017-05-18T11:05:13.731Z,52.85
2017-05-18T11:06:26.244Z,53.36
2017-05-18T11:07:14.515Z,53.50
2017-05-18T11:08:15.002Z,53.32
2017-05-18T11:09:14.731Z,52.70
2017-05-18T11:10:15.058Z,52.50
2017-05-18T11:11:10.275Z,52.49
2017-05-18T11:12:11.934Z,52.49
2017-05-18T11:13:15.006Z,52.46
2017-05-18T11:14:14.423Z,52.41
2017-05-18T11:15:14.124Z,52.34
2017-05-18T11:16:14.500Z,52.41
2017-05-18T11:17:15.228Z,52.36
2017-05-18T11:18:14.654Z,52.45
2017-05-18T11:19:15.325Z,53.25
2017-05-18T11:20:14.234Z,53.39
2017-05-18T11:21:15.750Z,53.49
2017-05-18T11:22:14.840Z,53.54
2017-05-18T11:23:16.484Z,53.55
2017-05-18T11:24:14.683Z,53.58
2017-05-18T11:25:16.731Z,53.59
2017-05-18T11:26:14.949Z,53.64
2017-05-18T11:27:14.139Z,53.63
2017-05-18T11:28:14.795Z,53.65
2017-05-18T11:29:14.798Z,53.63
2017-05-18T11:30:14.844Z,53.64
2017-05-18T11:31:14.928Z,53.65
2017-05-18T11:32:13.938Z,53.62
2017-05-18T11:33:20.222Z,53.62
2017-05-18T11:34:14.567Z,53.62
2017-05-18T11:35:14.871Z,53.62
2017-05-18T11:36:12.195Z,53.65
2017-05-18T11:37:14.942Z,52.78
2017-05-18T11:38:14.653Z,52.91
2017-05-18T11:39:15.532Z,53.38
2017-05-18T11:40:14.512Z,53.52
2017-05-18T11:41:14.585Z,53.59
2017-05-18T11:42:14.651Z,53.61
2017-05-18T11:43:15.546Z,53.60
2017-05-18T11:44:14.710Z,53.62
2017-05-18T11:45:14.949Z,53.61
2017-05-18T11:46:14.519Z,53.60
2017-05-18T11:47:15.512Z,53.37
2017-05-18T11:48:12.208Z,52.78
2017-05-18T11:49:14.780Z,52.60
2017-05-18T11:50:12.056Z,52.57
2017-05-18T11:51:14.691Z,53.36
2017-05-18T11:52:14.789Z,53.47
2017-05-18T11:53:14.865Z,53.54
2017-05-18T11:54:14.756Z,53.53
2017-05-18T11:55:15.515Z,53.61
2017-05-18T11:56:15.474Z,53.58
2017-05-18T11:57:15.054Z,53.39
2017-05-18T11:58:15.619Z,53.15
2017-05-18T11:59:15.301Z,53.47
2017-05-18T12:00:14.483Z,53.52
2017-05-18T12:01:13.361Z,53.52
2017-05-18T12:02:11.756Z,53.59
2017-05-18T12:03:14.907Z,52.98
2017-05-18T12:04:14.295Z,53.42
2017-05-18T12:05:14.586Z,53.50
2017-05-18T12:06:14.711Z,53.51
2017-05-18T12:07:15.608Z,53.52
2017-05-18T12:08:15.664Z,53.50
2017-05-18T12:09:15.350Z,53.44
2017-05-18T12:10:15.252Z,53.51
2017-05-18T12:11:14.345Z,53.52
2017-05-18T12:12:14.414Z,53.47
2017-05-18T12:13:12.308Z,53.50
2017-05-18T12:14:11.720Z,53.52
2017-05-18T12:15:14.351Z,53.50
2017-05-18T12:16:14.421Z,53.47
2017-05-18T12:17:14.589Z,53.48
2017-05-18T12:18:15.293Z,53.44
2017-05-18T12:19:14.689Z,53.44
2017-05-18T12:20:15.261Z,53.48
2017-05-18T12:21:14.939Z,53.44
2017-05-18T12:22:15.610Z,53.42
2017-05-18T12:23:15.052Z,53.46
2017-05-18T12:24:16.689Z,53.44
2017-05-18T12:25:14.585Z,53.41
2017-05-18T12:26:17.129Z,53.45
2017-05-18T12:27:14.930Z,53.42
2017-05-18T12:28:14.579Z,53.41
2017-05-18T12:29:16.550Z,53.41
2017-05-18T12:30:12.007Z,53.32
2017-05-18T12:31:14.539Z,53.37
2017-05-18T12:32:14.797Z,53.39
2017-05-18T12:33:14.845Z,53.34
2017-05-18T12:34:14.823Z,53.36
2017-05-18T12:35:14.810Z,53.31
2017-05-18T12:36:15.750Z,53.29
2017-05-18T12:37:14.717Z,53.27
2017-05-18T12:38:12.246Z,53.28
2017-05-18T12:39:16.104Z,53.29
2017-05-18T12:40:14.024Z,53.26
2017-05-18T12:41:11.732Z,53.29
2017-05-18T12:42:15.478Z,53.34
2017-05-18T12:43:14.527Z,53.37
2017-05-18T12:44:15.386Z,53.43
2017-05-18T12:45:14.293Z,53.43
2017-05-18T12:46:14.410Z,53.43
2017-05-18T12:47:14.618Z,53.44
2017-05-18T12:48:14.598Z,53.41
2017-05-18T12:49:14.420Z,53.34
2017-05-18T12:50:14.504Z,53.36
2017-05-18T12:51:14.189Z,53.35
2017-05-18T12:52:14.916Z,53.26